Time;durP1;ratioP1;P1;durP2;ratioP2;P2;SDS_P1;SDS_P2;PMS_P1;PMS_P2;Temp;Humidity;BMP_temperature;BMP_pressure;BME280_temperature;BME280_humidity;BME280_pressure;Samples;Min_cycle;Max_cycle;Signal;HPM_P1;HPM_P2
2021/09/20 00:02:02;;;;;;;19.30;7.30;;;;;;;6.25;79.63;100460.69;112857;1200;24196;-62
2021/09/20 00:04:33;;;;;;;16.20;5.90;;;;;;;6.25;79.37;100464.91;113087;1192;24230;-62
2021/09/20 00:07:04;;;;;;;18.60;6.10;;;;;;;6.21;79.05;100466.13;113047;1193;22441;-62
2021/09/20 00:09:35;;;;;;;20.50;6.90;;;;;;;6.20;79.06;100466.17;113075;1199;22432;-63
2021/09/20 00:12:08;;;;;;;18.20;5.50;;;;;;;6.18;78.94;100467.98;113005;1199;24999;-62
2021/09/20 00:14:38;;;;;;;18.20;6.90;;;;;;;6.16;78.99;100467.73;112944;1199;22562;-62
2021/09/20 00:17:09;;;;;;;17.30;6.40;;;;;;;6.15;79.09;100467.98;112700;1199;25131;-63
2021/09/20 00:19:40;;;;;;;16.10;5.90;;;;;;;6.15;79.28;100468.55;113167;1199;24132;-62
2021/09/20 00:22:11;;;;;;;21.00;7.10;;;;;;;6.17;79.80;100462.70;112897;1200;22441;-62
2021/09/20 00:24:43;;;;;;;18.40;6.80;;;;;;;6.21;80.05;100467.02;112837;1199;22440;-62
2021/09/20 00:27:16;;;;;;;18.40;8.10;;;;;;;6.25;80.24;100463.48;112819;1193;22438;-62
2021/09/20 00:29:47;;;;;;;22.90;7.90;;;;;;;6.27;80.35;100463.56;112680;1199;22449;-62
2021/09/20 00:32:18;;;;;;;21.40;7.10;;;;;;;6.31;80.55;100464.70;112675;1199;22445;-62
2021/09/20 00:34:49;;;;;;;22.40;8.80;;;;;;;6.35;80.52;100464.84;112987;1198;22544;-62
2021/09/20 00:37:19;;;;;;;16.50;6.10;;;;;;;6.37;80.54;100468.31;112616;1193;24958;-62
2021/09/20 00:39:50;;;;;;;20.80;6.80;;;;;;;6.39;80.67;100464.11;112595;1199;22457;-62
2021/09/20 00:42:22;;;;;;;18.60;7.00;;;;;;;6.42;80.79;100464.89;112664;1192;22462;-63
2021/09/20 00:44:53;;;;;;;20.60;8.90;;;;;;;6.45;80.86;100466.32;112659;1200;22463;-62
2021/09/20 00:47:26;;;;;;;21.80;8.50;;;;;;;6.47;80.92;100466.65;112623;1193;25213;-62
2021/09/20 00:49:57;;;;;;;21.60;9.10;;;;;;;6.50;81.05;100464.42;112895;1199;22431;-63
2021/09/20 00:52:29;;;;;;;21.40;8.70;;;;;;;6.52;81.13;100466.81;113047;1198;22430;-63
2021/09/20 00:55:01;;;;;;;20.60;7.90;;;;;;;6.56;81.35;100467.16;112629;1200;22467;-63
2021/09/20 00:57:33;;;;;;;21.50;8.20;;;;;;;6.58;81.33;100463.73;112603;1192;22446;-63
2021/09/20 01:00:11;;;;;;;20.80;7.90;;;;;;;6.61;81.31;100463.65;112745;1199;22430;-62
2021/09/20 01:02:42;;;;;;;19.30;7.50;;;;;;;6.63;81.32;100463.36;112860;1192;22580;-63
2021/09/20 01:05:14;;;;;;;21.80;8.60;;;;;;;6.64;81.41;100463.08;112770;1199;22412;-61
2021/09/20 01:07:45;;;;;;;20.10;7.60;;;;;;;6.66;81.43;100459.36;112657;1199;25113;-62
2021/09/20 01:10:16;;;;;;;19.60;7.70;;;;;;;6.70;81.68;100460.29;112834;1192;24191;-62
2021/09/20 01:12:48;;;;;;;21.40;8.20;;;;;;;6.73;81.81;100461.35;112625;1185;22445;-62
2021/09/20 01:15:19;;;;;;;18.40;7.00;;;;;;;6.77;82.02;100464.30;112792;1200;25110;-62
2021/09/20 01:17:50;;;;;;;22.00;7.10;;;;;;;6.78;82.12;100461.74;112651;1199;24211;-63
2021/09/20 01:20:22;;;;;;;22.20;7.20;;;;;;;6.78;82.13;100464.45;112865;1199;25113;-62
2021/09/20 01:22:59;;;;;;;19.70;7.30;;;;;;;6.79;82.19;100459.17;112999;1199;25106;-63
2021/09/20 01:25:31;;;;;;;19.10;7.20;;;;;;;6.82;82.20;100460.65;113030;1200;22461;-62
2021/09/20 01:28:02;;;;;;;22.30;8.10;;;;;;;6.86;82.27;100456.41;112691;1200;23023;-62
2021/09/20 01:30:34;;;;;;;20.00;7.20;;;;;;;6.90;82.35;100458.89;112655;1198;22948;-62
2021/09/20 01:33:06;;;;;;;19.00;7.80;;;;;;;6.92;82.43;100459.52;112618;1200;27219;-62
2021/09/20 01:35:37;;;;;;;19.60;6.90;;;;;;;6.94;82.49;100456.91;112681;1192;23648;-63
2021/09/20 01:38:08;;;;;;;17.70;6.50;;;;;;;6.97;82.68;100459.50;112665;1193;24070;-63
2021/09/20 01:40:39;;;;;;;20.20;7.90;;;;;;;6.99;82.80;100460.23;112752;1200;23031;-63
2021/09/20 01:43:11;;;;;;;19.80;7.20;;;;;;;7.02;82.82;100456.30;112978;1193;26292;-62
2021/09/20 01:45:42;;;;;;;20.00;7.30;;;;;;;7.04;82.92;100455.83;112960;1193;22620;-63
2021/09/20 01:48:13;;;;;;;16.40;6.80;;;;;;;7.06;83.04;100454.89;112937;1193;22481;-61
2021/09/20 01:50:44;;;;;;;20.80;8.10;;;;;;;7.07;83.00;100458.42;112658;1192;22442;-62
2021/09/20 01:53:16;;;;;;;22.60;8.10;;;;;;;7.09;83.23;100461.15;112653;1199;24064;-62
2021/09/20 01:55:47;;;;;;;20.50;8.30;;;;;;;7.10;83.29;100457.92;112653;1199;22440;-62
2021/09/20 01:58:18;;;;;;;20.80;8.00;;;;;;;7.12;83.32;100454.86;112633;1200;24178;-62
2021/09/20 02:00:49;;;;;;;23.40;8.30;;;;;;;7.14;83.43;100454.98;112784;1200;25197;-62
2021/09/20 02:03:23;;;;;;;20.40;7.90;;;;;;;7.18;83.41;100454.94;112689;1192;22436;-62
2021/09/20 02:05:56;;;;;;;23.80;8.30;;;;;;;7.21;83.43;100450.39;112651;1200;22902;-62
2021/09/20 02:08:27;;;;;;;20.80;8.30;;;;;;;7.25;83.54;100453.36;112747;1199;24034;-62
2021/09/20 02:10:58;;;;;;;22.60;7.40;;;;;;;7.28;83.59;100456.08;112604;1200;22443;-62
2021/09/20 02:13:29;;;;;;;23.10;8.10;;;;;;;7.30;83.69;100453.17;112600;1200;22442;-62
2021/09/20 02:16:00;;;;;;;21.60;7.80;;;;;;;7.30;83.77;100456.16;112604;1199;22751;-62
2021/09/20 02:18:32;;;;;;;20.90;8.10;;;;;;;7.32;83.70;100456.08;112579;1193;22443;-62
2021/09/20 02:21:03;;;;;;;21.60;7.40;;;;;;;7.35;83.90;100457.42;112711;1199;24062;-62
2021/09/20 02:23:35;;;;;;;21.60;7.40;;;;;;;7.37;83.88;100459.59;112699;1193;22534;-63
2021/09/20 02:26:06;;;;;;;18.00;6.60;;;;;;;7.39;84.10;100460.06;112729;1192;24021;-62
2021/09/20 02:28:37;;;;;;;21.70;7.60;;;;;;;7.41;84.18;100461.20;112660;1199;22436;-63
2021/09/20 02:31:10;;;;;;;20.90;7.60;;;;;;;7.42;84.12;100464.39;112645;1192;22449;-62
2021/09/20 02:33:42;;;;;;;20.30;7.60;;;;;;;7.45;84.34;100463.11;112813;1200;22574;-62
2021/09/20 02:36:13;;;;;;;21.20;7.50;;;;;;;7.47;84.42;100468.02;113024;1193;22618;-62
2021/09/20 02:38:44;;;;;;;18.30;7.10;;;;;;;7.49;84.36;100468.02;112628;1200;22443;-63
2021/09/20 02:41:15;;;;;;;18.10;7.90;;;;;;;7.51;84.30;100463.60;112667;1184;22431;-63
2021/09/20 02:43:46;;;;;;;20.00;6.80;;;;;;;7.52;84.46;100463.14;112713;1199;22438;-62
2021/09/20 02:46:18;;;;;;;20.80;7.30;;;;;;;7.54;84.43;100466.73;112736;1199;24167;-63
2021/09/20 02:48:50;;;;;;;20.20;8.30;;;;;;;7.56;84.63;100463.56;112678;1192;22555;-62
2021/09/20 02:51:21;;;;;;;22.30;7.40;;;;;;;7.56;84.67;100462.98;113087;1199;24444;-62
2021/09/20 02:53:52;;;;;;;24.20;8.40;;;;;;;7.59;84.65;100460.22;112908;1193;23131;-62
2021/09/20 02:56:24;;;;;;;21.70;8.00;;;;;;;7.60;84.55;100460.78;112674;1199;22559;-62
2021/09/20 02:58:55;;;;;;;19.70;8.10;;;;;;;7.64;84.60;100462.02;112798;1192;24058;-62
2021/09/20 03:01:27;;;;;;;21.40;8.30;;;;;;;7.67;84.76;100463.70;112788;1199;23767;-63
2021/09/20 03:03:58;;;;;;;16.80;6.80;;;;;;;7.69;84.68;100466.09;112776;1193;22737;-63
2021/09/20 03:06:30;;;;;;;21.50;8.00;;;;;;;7.70;84.72;100466.44;112722;1193;25025;-63
2021/09/20 03:09:02;;;;;;;20.30;7.10;;;;;;;7.71;84.70;100467.52;112745;1196;22442;-63
2021/09/20 03:11:33;;;;;;;19.20;7.40;;;;;;;7.72;84.81;100469.39;112722;1199;24226;-62
2021/09/20 03:14:05;;;;;;;21.20;7.90;;;;;;;7.74;84.82;100468.54;112773;1200;22437;-62
2021/09/20 03:16:36;;;;;;;22.20;8.90;;;;;;;7.76;84.88;100468.46;112792;1200;25000;-61
2021/09/20 03:19:08;;;;;;;19.50;7.50;;;;;;;7.78;85.02;100473.77;112760;1200;24276;-62
2021/09/20 03:21:40;;;;;;;19.20;7.40;;;;;;;7.80;85.03;100473.79;112926;1193;23598;-62
2021/09/20 03:24:12;;;;;;;22.10;7.60;;;;;;;7.82;85.07;100473.80;112990;1199;24898;-62
2021/09/20 03:26:45;;;;;;;19.90;7.70;;;;;;;7.84;85.16;100472.86;113190;1200;22443;-62
2021/09/20 03:29:17;;;;;;;21.20;7.80;;;;;;;7.85;85.19;100472.77;112880;1200;22439;-62
2021/09/20 03:31:48;;;;;;;19.80;7.50;;;;;;;7.88;85.19;100474.41;112814;1200;25093;-62
2021/09/20 03:34:19;;;;;;;21.40;6.10;;;;;;;7.90;85.20;100475.23;112670;1200;24016;-62
2021/09/20 03:36:50;;;;;;;19.30;7.50;;;;;;;7.92;85.23;100480.71;112616;1193;24146;-62
2021/09/20 03:39:21;;;;;;;18.10;7.50;;;;;;;7.93;85.38;100481.95;112656;1193;22444;-61
2021/09/20 03:41:53;;;;;;;16.80;6.80;;;;;;;7.94;85.31;100482.37;112769;1200;24055;-63
2021/09/20 03:44:25;;;;;;;19.70;7.20;;;;;;;7.96;85.36;100478.63;112775;1193;25088;-62
2021/09/20 03:46:55;;;;;;;18.50;7.10;;;;;;;7.98;85.35;100481.57;112598;1200;22439;-62
2021/09/20 03:49:26;;;;;;;20.30;8.10;;;;;;;8.00;85.44;100482.54;112543;1200;22470;-62
2021/09/20 03:51:57;;;;;;;20.50;7.90;;;;;;;8.03;85.63;100481.88;112667;1193;24178;-62
2021/09/20 03:54:28;;;;;;;19.00;7.40;;;;;;;8.04;85.48;100481.58;112633;1200;22460;-61
2021/09/20 03:56:59;;;;;;;25.70;8.90;;;;;;;8.06;85.60;100481.19;112626;1193;22443;-62
2021/09/20 03:59:32;;;;;;;19.80;8.10;;;;;;;8.08;85.53;100484.83;112797;1200;25023;-62
2021/09/20 04:02:03;;;;;;;18.90;8.00;;;;;;;8.10;85.58;100486.20;113006;1200;22559;-63
2021/09/20 04:04:35;;;;;;;17.20;6.40;;;;;;;8.11;85.55;100482.88;112750;1200;22457;-61
2021/09/20 04:07:06;;;;;;;18.30;6.90;;;;;;;8.13;85.62;100482.42;112792;1200;25032;-63
2021/09/20 04:09:38;;;;;;;18.20;6.80;;;;;;;8.14;85.69;100481.02;112850;1200;24000;-63
2021/09/20 04:12:10;;;;;;;21.70;8.40;;;;;;;8.16;85.72;100481.83;112788;1200;24996;-62
2021/09/20 04:14:41;;;;;;;19.40;7.70;;;;;;;8.19;85.85;100472.27;112880;1199;25221;-62
2021/09/20 04:17:13;;;;;;;17.30;6.40;;;;;;;8.22;85.82;100474.23;112825;1200;25038;-64
2021/09/20 04:19:44;;;;;;;24.30;8.90;;;;;;;8.24;85.85;100478.20;112799;1200;24064;-63
2021/09/20 04:22:15;;;;;;;20.60;7.50;;;;;;;8.27;85.85;100475.25;112613;1200;22439;-63
2021/09/20 04:24:47;;;;;;;20.00;6.90;;;;;;;8.30;85.79;100478.30;112639;1200;22466;-63
2021/09/20 04:27:19;;;;;;;17.90;6.40;;;;;;;8.34;85.72;100483.93;112705;1200;22426;-63
2021/09/20 04:29:50;;;;;;;18.00;6.90;;;;;;;8.38;85.94;100482.24;113178;1199;26247;-63
2021/09/20 04:32:21;;;;;;;21.10;7.70;;;;;;;8.42;85.84;100485.38;112969;1192;22422;-63
2021/09/20 04:34:52;;;;;;;20.40;7.10;;;;;;;8.44;85.80;100485.91;112965;1200;23990;-63
2021/09/20 04:37:23;;;;;;;18.20;7.20;;;;;;;8.47;85.86;100490.41;112897;1200;22699;-64
2021/09/20 04:39:55;;;;;;;19.80;7.70;;;;;;;8.50;85.77;100489.91;112832;1199;22443;-65
2021/09/20 04:42:26;;;;;;;18.50;6.90;;;;;;;8.53;85.83;100497.41;112734;1200;23593;-64
2021/09/20 04:44:57;;;;;;;19.60;7.50;;;;;;;8.54;85.86;100505.37;113024;1199;22463;-64
2021/09/20 04:47:28;;;;;;;21.60;6.90;;;;;;;8.56;85.99;100507.63;112859;1193;24053;-61
2021/09/20 04:50:00;;;;;;;20.80;6.50;;;;;;;8.57;86.13;100507.73;112841;1200;25085;-61
2021/09/20 04:52:32;;;;;;;17.10;6.40;;;;;;;8.57;86.22;100511.55;112867;1192;24069;-62
2021/09/20 04:55:03;;;;;;;19.90;6.70;;;;;;;8.57;86.22;100513.46;112923;1193;22997;-59
2021/09/20 04:57:34;;;;;;;17.70;6.70;;;;;;;8.56;86.39;100516.74;112766;1199;22868;-61
2021/09/20 05:00:07;;;;;;;18.10;7.60;;;;;;;8.56;86.51;100517.30;112680;1199;22409;-61
2021/09/20 05:02:42;;;;;;;17.30;6.10;;;;;;;8.56;86.56;100516.13;112634;1199;24099;-61
2021/09/20 05:05:15;;;;;;;15.20;6.10;;;;;;;8.56;86.59;100520.25;112456;1200;24013;-62
2021/09/20 05:07:46;;;;;;;21.40;7.70;;;;;;;8.57;86.68;100520.06;112496;1193;24069;-62
2021/09/20 05:10:18;;;;;;;17.50;6.80;;;;;;;8.57;86.61;100524.34;112776;1199;22437;-61
2021/09/20 05:12:49;;;;;;;17.30;5.90;;;;;;;8.58;86.69;100523.83;112961;1184;25307;-62
2021/09/20 05:15:20;;;;;;;20.20;7.20;;;;;;;8.59;86.79;100525.69;112946;1199;22438;-62
2021/09/20 05:17:51;;;;;;;19.60;6.30;;;;;;;8.60;86.85;100530.11;112776;1194;22757;-62
2021/09/20 05:20:22;;;;;;;20.50;7.30;;;;;;;8.61;87.03;100531.02;113047;1193;25338;-61
2021/09/20 05:22:55;;;;;;;16.50;6.50;;;;;;;8.62;87.01;100533.59;112696;1197;22452;-61
2021/09/20 05:25:26;;;;;;;18.90;8.00;;;;;;;8.63;86.98;100534.98;112744;1199;22495;-61
2021/09/20 05:27:57;;;;;;;21.00;6.90;;;;;;;8.66;86.92;100539.82;112791;1192;22458;-68
2021/09/20 05:30:28;;;;;;;17.70;7.10;;;;;;;8.68;87.09;100542.52;112735;1193;22715;-62
2021/09/20 05:32:59;;;;;;;18.40;6.80;;;;;;;8.70;87.10;100545.77;112830;1199;22735;-62
2021/09/20 05:35:32;;;;;;;16.00;5.70;;;;;;;8.73;86.99;100546.23;112975;1192;22442;-61
2021/09/20 05:38:02;;;;;;;18.30;6.30;;;;;;;8.75;87.02;100546.73;112880;1199;24039;-62
2021/09/20 05:40:34;;;;;;;17.70;5.90;;;;;;;8.78;87.14;100549.33;112762;1184;24038;-62
2021/09/20 05:43:06;;;;;;;19.30;6.20;;;;;;;8.81;87.13;100546.58;112968;1193;22466;-63
2021/09/20 05:45:37;;;;;;;16.10;5.90;;;;;;;8.84;87.31;100544.86;112764;1199;22410;-62
2021/09/20 05:48:08;;;;;;;14.90;5.20;;;;;;;8.87;87.08;100546.36;112855;1200;25054;-62
2021/09/20 05:50:39;;;;;;;17.00;5.50;;;;;;;8.90;87.25;100551.06;112927;1200;22532;-62
2021/09/20 05:53:10;;;;;;;20.30;6.20;;;;;;;8.94;87.14;100550.91;112958;1199;24054;-62
2021/09/20 05:55:42;;;;;;;20.00;6.20;;;;;;;8.98;87.16;100554.57;112854;1199;25389;-62
2021/09/20 05:58:13;;;;;;;14.00;4.90;;;;;;;9.01;87.06;100554.13;112873;1193;22491;-63
2021/09/20 06:00:46;;;;;;;17.60;5.60;;;;;;;9.04;87.06;100555.83;112472;1199;22445;-60
2021/09/20 06:03:17;;;;;;;21.20;5.90;;;;;;;9.07;86.97;100552.92;112790;1199;25034;-61
2021/09/20 06:05:48;;;;;;;18.70;6.70;;;;;;;9.10;87.01;100554.56;115085;1199;22543;-60
2021/09/20 06:08:19;;;;;;;17.80;6.00;;;;;;;9.12;87.01;100556.84;113018;1200;25184;-61
2021/09/20 06:10:50;;;;;;;15.90;5.30;;;;;;;9.15;87.05;100558.05;112804;1185;24121;-61
2021/09/20 06:13:20;;;;;;;19.00;6.60;;;;;;;9.19;87.11;100557.42;112657;1200;22445;-63
2021/09/20 06:15:53;;;;;;;23.10;7.10;;;;;;;9.22;87.17;100560.42;112762;1199;22445;-61
2021/09/20 06:18:24;;;;;;;21.20;7.00;;;;;;;9.26;87.02;100558.91;112681;1199;22442;-62
2021/09/20 06:20:57;;;;;;;17.50;6.40;;;;;;;9.30;87.09;100561.41;112723;1199;22504;-62
2021/09/20 06:23:29;;;;;;;19.30;6.80;;;;;;;9.34;87.17;100568.81;113170;1199;22449;-60
2021/09/20 06:26:00;;;;;;;16.20;6.10;;;;;;;9.38;86.86;100571.41;112774;1200;25091;-60
2021/09/20 06:28:31;;;;;;;25.00;7.40;;;;;;;9.41;86.97;100569.13;112777;1200;22665;-62
2021/09/20 06:31:03;;;;;;;16.30;6.00;;;;;;;9.46;86.88;100569.46;112641;1200;22421;-59
2021/09/20 06:33:36;;;;;;;18.60;6.40;;;;;;;9.50;86.83;100572.23;112739;1193;22534;-61
2021/09/20 06:36:09;;;;;;;16.40;6.80;;;;;;;9.54;86.96;100567.67;112983;1185;24064;-61
2021/09/20 06:38:40;;;;;;;18.70;6.40;;;;;;;9.59;86.86;100575.19;112856;1199;22622;-61
2021/09/20 06:41:12;;;;;;;18.80;6.50;;;;;;;9.62;86.73;100576.18;113427;1199;24134;-60
2021/09/20 06:43:43;;;;;;;20.00;6.20;;;;;;;9.65;86.76;100578.33;113495;1199;22452;-58
2021/09/20 06:46:15;;;;;;;19.70;6.60;;;;;;;9.68;86.76;100583.55;113069;1199;22786;-60
2021/09/20 06:48:46;;;;;;;19.90;5.40;;;;;;;9.71;86.66;100581.93;112910;1200;22440;-59
2021/09/20 06:51:17;;;;;;;16.80;5.80;;;;;;;9.73;86.63;100584.38;112827;1199;23710;-61
2021/09/20 06:53:49;;;;;;;12.60;4.80;;;;;;;9.75;86.63;100586.20;112811;1199;22535;-61
2021/09/20 06:56:21;;;;;;;13.70;4.80;;;;;;;9.76;86.60;100587.81;112834;1199;22507;-60
2021/09/20 06:58:53;;;;;;;15.50;5.50;;;;;;;9.77;86.56;100588.64;112755;1199;25694;-61
2021/09/20 07:01:24;;;;;;;17.10;6.70;;;;;;;9.78;86.55;100590.11;112823;1200;26383;-61
2021/09/20 07:03:57;;;;;;;17.60;7.00;;;;;;;9.81;86.62;100592.81;112624;1200;22439;-61
2021/09/20 07:06:28;;;;;;;16.50;4.80;;;;;;;9.84;86.43;100598.72;112752;1193;25124;-61
2021/09/20 07:08:59;;;;;;;15.20;5.00;;;;;;;9.86;86.42;100594.34;112671;1197;24296;-62
2021/09/20 07:11:33;;;;;;;19.30;6.50;;;;;;;9.87;86.34;100594.23;112754;1199;22439;-59
2021/09/20 07:14:04;;;;;;;16.40;5.30;;;;;;;9.89;86.36;100598.75;112807;1193;25309;-61
2021/09/20 07:16:35;;;;;;;14.10;5.20;;;;;;;9.91;86.18;100601.13;112682;1199;22439;-62
2021/09/20 07:19:06;;;;;;;12.50;4.50;;;;;;;9.92;86.13;100600.92;113117;1199;22426;-61
2021/09/20 07:21:39;;;;;;;13.90;5.40;;;;;;;9.95;86.27;100599.36;112855;1199;23314;-62
2021/09/20 07:24:10;;;;;;;17.10;7.40;;;;;;;9.98;86.19;100603.13;112805;1199;25067;-62
2021/09/20 07:26:41;;;;;;;21.70;6.10;;;;;;;10.02;86.12;100604.23;112775;1199;25311;-61
2021/09/20 07:29:13;;;;;;;15.10;5.30;;;;;;;10.06;85.94;100603.72;113027;1199;24975;-62
2021/09/20 07:31:44;;;;;;;13.30;4.70;;;;;;;10.07;85.62;100603.56;112849;1199;22426;-62
2021/09/20 07:34:15;;;;;;;14.60;5.20;;;;;;;10.09;85.61;100604.05;112619;1199;22445;-62
2021/09/20 07:36:46;;;;;;;17.40;5.80;;;;;;;10.12;85.60;100610.55;112642;1199;22444;-62
2021/09/20 07:39:17;;;;;;;15.40;5.60;;;;;;;10.13;85.56;100610.51;112631;1199;25114;-61
2021/09/20 07:41:48;;;;;;;16.00;4.00;;;;;;;10.15;85.68;100612.95;112749;1199;25085;-61
2021/09/20 07:44:19;;;;;;;18.70;5.40;;;;;;;10.17;85.55;100616.68;112652;1199;22430;-61
2021/09/20 07:46:50;;;;;;;20.90;5.80;;;;;;;10.18;85.50;100616.36;112644;1199;25084;-61
2021/09/20 07:49:22;;;;;;;13.40;4.60;;;;;;;10.18;85.37;100618.48;112620;1194;22533;-61
2021/09/20 07:51:52;;;;;;;12.70;4.80;;;;;;;10.17;85.11;100617.72;112671;1192;22436;-60
2021/09/20 07:54:23;;;;;;;15.30;4.80;;;;;;;10.17;85.32;100618.67;112668;1194;22439;-62
2021/09/20 07:56:54;;;;;;;14.10;4.80;;;;;;;10.18;85.25;100619.91;112660;1192;25005;-61
2021/09/20 07:59:25;;;;;;;17.90;5.20;;;;;;;10.21;85.26;100622.98;112630;1199;22466;-61
2021/09/20 08:01:56;;;;;;;13.10;4.30;;;;;;;10.25;85.23;100624.46;112751;1199;26283;-61
2021/09/20 08:04:26;;;;;;;14.10;4.30;;;;;;;10.28;85.14;100626.96;112755;1199;22988;-61
2021/09/20 08:06:57;;;;;;;16.50;4.90;;;;;;;10.29;85.06;100627.71;112642;1200;22445;-62
2021/09/20 08:09:29;;;;;;;14.90;5.00;;;;;;;10.29;84.79;100629.85;112643;1193;22452;-61
2021/09/20 08:12:00;;;;;;;15.20;4.50;;;;;;;10.28;84.64;100634.44;112962;1199;25040;-61
2021/09/20 08:14:31;;;;;;;15.40;5.20;;;;;;;10.29;84.80;100637.44;112660;1193;22449;-61
2021/09/20 08:17:02;;;;;;;14.80;4.90;;;;;;;10.31;84.88;100634.88;112650;1200;25000;-62
2021/09/20 08:19:33;;;;;;;18.90;4.70;;;;;;;10.35;84.59;100634.00;112680;1177;24068;-61
2021/09/20 08:22:04;;;;;;;13.30;4.90;;;;;;;10.35;84.63;100633.01;112665;1199;22414;-60
2021/09/20 08:24:36;;;;;;;13.20;5.30;;;;;;;10.40;84.87;100631.35;112643;1200;22504;-61
2021/09/20 08:27:08;;;;;;;16.90;5.40;;;;;;;10.43;84.72;100630.40;112631;1192;22437;-62
2021/09/20 08:29:40;;;;;;;17.40;5.70;;;;;;;10.44;84.57;100635.78;112685;1199;25084;-61
2021/09/20 08:32:12;;;;;;;18.70;5.50;;;;;;;10.46;84.48;100634.81;112803;1192;22440;-61
2021/09/20 08:34:43;;;;;;;19.30;7.50;;;;;;;10.48;84.23;100636.42;112655;1199;22442;-61
2021/09/20 08:37:14;;;;;;;20.60;7.00;;;;;;;10.49;84.35;100634.59;112767;1192;25734;-61
2021/09/20 08:39:47;;;;;;;21.50;8.30;;;;;;;10.53;84.26;100638.33;112796;1200;22439;-61
2021/09/20 08:42:19;;;;;;;23.40;7.60;;;;;;;10.55;84.04;100639.50;112854;1200;22452;-58
2021/09/20 08:44:51;;;;;;;22.80;8.00;;;;;;;10.57;83.84;100642.05;112877;1200;25551;-61
2021/09/20 08:47:21;;;;;;;22.60;8.30;;;;;;;10.62;84.14;100644.27;112618;1199;22443;-60
2021/09/20 08:49:53;;;;;;;24.40;8.90;;;;;;;10.67;83.96;100638.27;112668;1192;22438;-61
2021/09/20 08:52:24;;;;;;;25.60;8.80;;;;;;;10.71;84.14;100636.95;112711;1199;22435;-61
2021/09/20 08:54:55;;;;;;;19.40;7.70;;;;;;;10.78;83.91;100642.41;112652;1199;25111;-61
2021/09/20 08:57:27;;;;;;;23.80;7.90;;;;;;;10.83;83.78;100640.44;112701;1199;23032;-61
2021/09/20 08:59:58;;;;;;;21.60;8.70;;;;;;;10.89;83.74;100640.73;113001;1193;22436;-61
2021/09/20 09:02:33;;;;;;;18.70;7.50;;;;;;;10.96;83.81;100641.16;113140;1199;22415;-62
2021/09/20 09:05:23;;;;;;;18.50;7.10;;;;;;;11.04;84.00;100643.17;113024;1199;22439;-61
2021/09/20 09:07:57;;;;;;;18.60;7.20;;;;;;;11.15;83.70;100649.12;112820;1193;24038;-61
2021/09/20 09:10:33;;;;;;;18.50;6.50;;;;;;;11.20;83.48;100647.01;112757;1199;22448;-61
2021/09/20 09:13:07;;;;;;;21.00;7.10;;;;;;;11.26;83.33;100649.68;112993;1193;27024;-62
2021/09/20 09:15:39;;;;;;;17.50;6.60;;;;;;;11.32;83.23;100651.76;112833;1200;22445;-61
2021/09/20 09:18:10;;;;;;;18.10;7.00;;;;;;;11.38;82.97;100654.33;112638;1199;22419;-61
2021/09/20 09:20:42;;;;;;;18.10;8.00;;;;;;;11.45;82.98;100653.11;113062;1199;25385;-61
2021/09/20 09:23:14;;;;;;;19.80;7.50;;;;;;;11.55;83.00;100651.84;113216;1193;22442;-62
2021/09/20 09:25:48;;;;;;;19.90;7.40;;;;;;;11.62;82.56;100648.34;112795;1199;22439;-63
2021/09/20 09:28:21;;;;;;;19.30;7.50;;;;;;;11.67;81.91;100649.45;112759;1199;25082;-62
2021/09/20 09:30:55;;;;;;;18.00;6.70;;;;;;;11.70;81.58;100653.00;112571;1200;22439;-61
2021/09/20 09:33:36;;;;;;;17.80;6.10;;;;;;;11.73;81.21;100655.40;112794;1193;24644;-61
2021/09/20 09:36:08;;;;;;;17.30;6.20;;;;;;;11.75;81.15;100652.91;112683;1199;25123;-61
2021/09/20 09:38:56;;;;;;;16.50;5.20;;;;;;;11.79;81.17;100656.05;112747;1192;22448;-61
2021/09/20 09:41:36;;;;;;;14.90;5.70;;;;;;;11.86;81.12;100654.41;112596;1192;22466;-60
2021/09/20 09:44:12;;;;;;;16.00;5.40;;;;;;;11.95;81.01;100661.15;113137;1193;22428;-60
2021/09/20 09:46:46;;;;;;;17.40;5.50;;;;;;;12.04;80.88;100658.89;113165;1199;24465;-61
2021/09/20 09:49:19;;;;;;;15.30;5.40;;;;;;;12.11;80.31;100657.02;113043;1192;25096;-61
2021/09/20 09:51:59;;;;;;;20.30;6.30;;;;;;;12.19;80.39;100652.68;113281;1199;22442;-60
2021/09/20 09:54:32;;;;;;;17.30;5.30;;;;;;;12.30;80.33;100648.50;113048;1199;22502;-59
2021/09/20 09:57:21;;;;;;;14.40;5.10;;;;;;;12.35;79.19;100646.40;112847;1200;25043;-62
2021/09/20 10:00:02;;;;;;;15.50;4.10;;;;;;;12.37;79.13;100649.34;112982;1199;22489;-61
2021/09/20 10:02:36;;;;;;;11.10;3.80;;;;;;;12.39;79.19;100642.86;113209;1199;22647;-60
2021/09/20 10:05:11;;;;;;;14.60;4.40;;;;;;;12.44;78.97;100636.84;113205;1199;25069;-61
2021/09/20 10:07:44;;;;;;;12.80;4.20;;;;;;;12.50;78.96;100632.47;113130;1192;22445;-60
2021/09/20 10:10:18;;;;;;;12.10;4.40;;;;;;;12.58;78.85;100633.07;113138;1199;22419;-60
2021/09/20 10:12:52;;;;;;;12.00;4.30;;;;;;;12.65;78.39;100627.22;113023;1199;22424;-60
2021/09/20 10:15:25;;;;;;;12.70;3.60;;;;;;;12.67;77.50;100628.16;113115;1199;24995;-60
2021/09/20 10:17:56;;;;;;;10.40;2.90;;;;;;;12.67;77.29;100627.05;113033;1192;24381;-60
2021/09/20 10:20:28;;;;;;;13.60;3.70;;;;;;;12.67;77.47;100624.95;112718;1193;25070;-60
2021/09/20 10:23:00;;;;;;;13.20;4.20;;;;;;;12.69;77.17;100621.85;112765;1193;25184;-59
2021/09/20 10:25:33;;;;;;;11.30;4.30;;;;;;;12.73;77.50;100625.48;112976;1200;25028;-60
2021/09/20 10:28:05;;;;;;;45.50;21.20;;;;;;;12.79;76.87;100627.05;112930;1193;22461;-60
2021/09/20 10:30:39;;;;;;;24.00;7.20;;;;;;;12.79;75.45;100634.33;112988;1199;22454;-61
2021/09/20 10:33:13;;;;;;;18.10;5.10;;;;;;;12.80;76.08;100628.13;112834;1184;24046;-61
2021/09/20 10:35:53;;;;;;;8.20;2.40;;;;;;;12.86;76.08;100629.05;112971;1200;22432;-61
2021/09/20 10:38:31;;;;;;;8.90;2.00;;;;;;;12.92;75.88;100624.97;113105;1192;22463;-60
2021/09/20 10:41:11;;;;;;;13.40;2.70;;;;;;;13.02;75.39;100624.66;113127;1199;22472;-61
2021/09/20 10:43:44;;;;;;;9.40;2.20;;;;;;;13.16;75.37;100629.08;113115;1199;24104;-61
2021/09/20 10:46:24;;;;;;;8.00;2.00;;;;;;;13.33;74.46;100629.41;113075;1200;25058;-61
2021/09/20 10:48:58;;;;;;;13.00;3.10;;;;;;;13.42;72.71;100632.30;112999;1194;22615;-61
2021/09/20 10:51:36;;;;;;;8.60;1.90;;;;;;;13.43;73.07;100630.80;112861;1200;25336;-60
2021/09/20 10:54:23;;;;;;;7.90;2.10;;;;;;;13.46;73.47;100624.61;113142;1199;24056;-61
2021/09/20 10:57:10;;;;;;;6.60;2.00;;;;;;;13.49;73.49;100624.34;113364;1200;22442;-61
2021/09/20 10:59:41;;;;;;;9.40;1.50;;;;;;;13.51;72.69;100628.48;113040;1200;25301;-60
2021/09/20 11:02:20;;;;;;;8.10;1.60;;;;;;;13.50;72.75;100625.08;114390;1199;22439;-61
2021/09/20 11:05:03;;;;;;;11.00;2.00;;;;;;;13.48;72.29;100628.98;113384;1199;24141;-60
2021/09/20 11:07:47;;;;;;;6.60;1.30;;;;;;;13.42;72.38;100627.45;112803;1200;23807;-60
2021/09/20 11:10:29;;;;;;;5.80;1.60;;;;;;;13.38;71.87;100630.83;112854;1200;25146;-60
2021/09/20 11:13:05;;;;;;;8.00;1.60;;;;;;;13.33;71.82;100632.95;112938;1199;22442;-61
2021/09/20 11:15:42;;;;;;;6.10;1.60;;;;;;;13.26;71.37;100632.84;112818;1200;24183;-60
2021/09/20 11:18:34;;;;;;;5.60;1.30;;;;;;;13.18;71.45;100630.33;112990;1199;23320;-60
2021/09/20 11:21:08;;;;;;;6.50;1.50;;;;;;;13.13;71.82;100631.42;113004;1200;22535;-60
2021/09/20 11:23:41;;;;;;;9.80;1.70;;;;;;;13.11;71.84;100631.70;113619;1172;22548;-60
2021/09/20 11:26:18;;;;;;;9.80;1.90;;;;;;;13.11;72.13;100633.95;113172;1192;22474;-58
2021/09/20 11:28:54;;;;;;;9.70;1.10;;;;;;;13.14;72.40;100634.41;113234;1184;24051;-58
2021/09/20 11:31:45;;;;;;;;;;;;;;;;;;;;;
2021/09/20 11:34:29;;;;;;;6.20;1.40;;;;;;;13.21;71.20;100638.63;112417;1200;22494;-59
2021/09/20 11:37:12;;;;;;;6.90;1.80;;;;;;;13.27;71.28;100641.27;112794;1192;22446;-56
2021/09/20 11:39:54;;;;;;;6.10;1.40;;;;;;;13.32;70.70;100641.23;112752;1184;25379;-59
2021/09/20 11:42:40;;;;;;;6.10;1.90;;;;;;;13.36;70.52;100639.30;112822;1199;25110;-58